Fondale, Louisiana
Current Conditions -  °F | °C
As of 8:53 PM on Friday 19 Dec 2014 (Local Time) from KMLU Reporting Station
Haze Haze  
Wind Chill: 41°   Ceiling: 700
Heat Index: 46°   Visibility: 6mi
Dew Point: 45°   Wind: 9mph
Humidity: 96%   Direction: 50°NE
Pressure: 30.19"   Gusts: NA
Location:  32.5324°N, 92.1046°W
Report Text: KMLU 200253Z 05008KT 6SM BR OVC007 08/07 A3019 RMK AO2 RAB03E37 CIG 006V011 SLP223 P0001 60001 T00780072 50007
Loading
Personal Weather Stations






























Interactive Weather Map New forecast layout! Learn more

10-Day Weather Forecast

Advertisements
Track Severe Weather on mobile